createdAt,value
2022-09-16T00:00:57.717Z,16.15
2022-09-16T00:03:25.730Z,16.17
2022-09-16T00:05:54.660Z,16.17
2022-09-16T00:08:24.367Z,16.16
2022-09-16T00:10:52.524Z,16.14
2022-09-16T00:13:20.423Z,16.11
2022-09-16T00:15:53.593Z,16.10
2022-09-16T00:18:21.233Z,16.08
2022-09-16T00:20:51.338Z,16.03
2022-09-16T00:23:20.223Z,15.97
2022-09-16T00:25:55.689Z,15.90
2022-09-16T00:28:24.416Z,15.85
2022-09-16T00:30:52.437Z,15.83
2022-09-16T00:33:20.698Z,15.77
2022-09-16T00:35:48.206Z,15.72
2022-09-16T00:38:16.142Z,15.73
2022-09-16T00:40:48.438Z,15.71
2022-09-16T00:43:18.699Z,15.70
2022-09-16T00:45:51.250Z,15.69
2022-09-16T00:48:24.747Z,15.66
2022-09-16T00:51:02.667Z,15.64
2022-09-16T00:53:37.396Z,15.60
2022-09-16T00:56:08.872Z,15.59
2022-09-16T00:58:47.891Z,15.56
2022-09-16T01:01:15.445Z,15.54
2022-09-16T01:03:49.297Z,15.53
2022-09-16T01:06:19.174Z,15.52
2022-09-16T01:08:46.808Z,15.52
2022-09-16T01:11:14.349Z,15.51
2022-09-16T01:13:43.916Z,15.52
2022-09-16T01:16:35.011Z,15.51
2022-09-16T01:19:20.564Z,15.51
2022-09-16T01:22:27.340Z,15.52
2022-09-16T01:25:09.616Z,15.53
2022-09-16T01:27:52.971Z,15.53
2022-09-16T01:30:29.910Z,15.53
2022-09-16T01:33:12.150Z,15.52
2022-09-16T01:35:51.445Z,15.51
2022-09-16T01:39:09.950Z,15.52
2022-09-16T01:41:55.901Z,15.53
2022-09-16T01:44:46.343Z,15.55
2022-09-16T01:47:54.989Z,15.55
2022-09-16T01:50:32.494Z,15.56
2022-09-16T01:53:28.131Z,15.55
2022-09-16T01:56:12.262Z,15.56
2022-09-16T01:58:46.594Z,15.57
2022-09-16T02:01:42.841Z,15.58
2022-09-16T02:04:22.480Z,15.56
2022-09-16T02:06:53.338Z,15.57
2022-09-16T02:09:27.389Z,15.58
2022-09-16T02:11:59.359Z,15.58
2022-09-16T02:14:33.527Z,15.57
2022-09-16T02:17:28.894Z,15.58
2022-09-16T02:20:02.908Z,15.54
2022-09-16T02:22:43.755Z,15.54
2022-09-16T02:25:13.697Z,15.53
2022-09-16T02:27:44.508Z,15.52
2022-09-16T02:30:17.345Z,15.54
2022-09-16T02:32:50.905Z,15.53
2022-09-16T02:35:22.262Z,15.53
2022-09-16T02:38:20.672Z,15.50
2022-09-16T02:40:58.758Z,15.52
2022-09-16T02:43:27.516Z,15.48
2022-09-16T02:46:06.613Z,15.51
2022-09-16T02:48:41.037Z,15.51
2022-09-16T02:51:39.771Z,15.52
2022-09-16T02:54:21.596Z,15.51
2022-09-16T02:56:51.604Z,15.53
2022-09-16T02:59:19.122Z,15.54
2022-09-16T03:01:47.482Z,15.57
2022-09-16T03:04:18.395Z,15.58
2022-09-16T03:06:46.635Z,15.60
2022-09-16T03:09:16.344Z,15.62
2022-09-16T03:12:17.784Z,15.69
2022-09-16T03:15:21.070Z,15.71
2022-09-16T03:18:22.911Z,15.73
2022-09-16T03:21:00.762Z,15.73
2022-09-16T03:23:50.598Z,15.75
2022-09-16T03:26:41.860Z,15.74
2022-09-16T03:29:20.066Z,15.75
2022-09-16T03:31:59.800Z,15.76
2022-09-16T03:34:37.023Z,15.76
2022-09-16T03:37:08.652Z,15.76
2022-09-16T03:39:37.464Z,15.77
2022-09-16T03:42:11.576Z,15.79
2022-09-16T03:44:40.954Z,15.78
2022-09-16T03:47:09.165Z,15.82
2022-09-16T03:49:37.546Z,15.83
2022-09-16T03:52:08.778Z,15.79
2022-09-16T03:54:37.387Z,15.85
2022-09-16T03:57:06.397Z,15.87
2022-09-16T03:59:34.217Z,15.89
2022-09-16T04:02:02.852Z,15.92
2022-09-16T04:04:30.333Z,15.93
2022-09-16T04:06:57.779Z,15.95
2022-09-16T04:09:25.336Z,15.96
2022-09-16T04:11:52.799Z,15.98
2022-09-16T04:14:20.589Z,15.98
2022-09-16T04:16:48.031Z,16.00
2022-09-16T04:19:15.473Z,16.02
2022-09-16T04:21:43.255Z,16.06
2022-09-16T04:24:13.345Z,16.08
2022-09-16T04:26:42.240Z,16.09
2022-09-16T04:29:12.490Z,16.11
2022-09-16T04:31:40.551Z,16.18
2022-09-16T04:34:12.204Z,16.19
2022-09-16T04:36:40.051Z,16.21
2022-09-16T04:39:07.911Z,16.21
2022-09-16T04:41:35.407Z,16.24
2022-09-16T04:44:03.385Z,16.23
2022-09-16T04:46:32.713Z,16.25
2022-09-16T04:49:01.181Z,16.25
2022-09-16T04:51:29.605Z,16.23
2022-09-16T04:53:57.838Z,16.30
2022-09-16T04:56:27.790Z,16.34
2022-09-16T04:58:58.811Z,16.34
2022-09-16T05:01:28.675Z,16.34
2022-09-16T05:03:59.153Z,16.34
2022-09-16T05:06:29.901Z,16.34
2022-09-16T05:08:57.678Z,16.29
2022-09-16T05:11:31.628Z,16.33
2022-09-16T05:13:59.923Z,16.34
2022-09-16T05:16:28.105Z,16.40
2022-09-16T05:18:58.449Z,16.46
2022-09-16T05:21:28.107Z,16.52
2022-09-16T05:23:59.926Z,16.57
2022-09-16T05:26:29.665Z,16.62
2022-09-16T05:29:01.477Z,16.67
2022-09-16T05:31:32.773Z,16.68
2022-09-16T05:34:11.813Z,16.73
2022-09-16T05:36:39.969Z,16.76
2022-09-16T05:39:24.479Z,16.84
2022-09-16T05:42:00.199Z,17.00
2022-09-16T05:44:29.059Z,17.08
2022-09-16T05:46:57.719Z,17.23
2022-09-16T05:49:25.906Z,17.37
2022-09-16T05:51:54.049Z,17.44
2022-09-16T05:54:25.537Z,17.47
2022-09-16T05:56:53.309Z,17.48
2022-09-16T05:59:21.127Z,17.53
2022-09-16T06:01:48.646Z,17.60
2022-09-16T06:04:16.859Z,17.68
2022-09-16T06:06:46.720Z,17.73
2022-09-16T06:09:21.958Z,17.79
2022-09-16T06:11:51.433Z,17.86
2022-09-16T06:14:23.357Z,18.08
2022-09-16T06:16:51.095Z,18.35
2022-09-16T06:19:22.019Z,18.49
2022-09-16T06:21:49.654Z,18.55
2022-09-16T06:24:18.415Z,18.52
2022-09-16T06:26:47.509Z,18.46
2022-09-16T06:29:16.869Z,18.36
2022-09-16T06:31:44.635Z,18.30
2022-09-16T06:34:18.795Z,18.24
2022-09-16T06:36:47.004Z,18.25
2022-09-16T06:39:16.293Z,18.31
2022-09-16T06:41:44.584Z,18.36
2022-09-16T06:44:12.207Z,18.44
2022-09-16T06:46:39.859Z,18.53
2022-09-16T06:49:07.740Z,18.55
2022-09-16T06:51:36.530Z,18.55
2022-09-16T06:54:08.908Z,18.57
2022-09-16T06:56:37.974Z,18.61
2022-09-16T06:59:05.938Z,18.63
2022-09-16T07:01:37.834Z,18.67
2022-09-16T07:04:13.801Z,18.67
2022-09-16T07:09:29.311Z,18.73
2022-09-16T07:11:57.279Z,18.76
2022-09-16T07:14:24.870Z,18.77
2022-09-16T07:16:52.905Z,18.79
2022-09-16T07:19:20.810Z,18.78
2022-09-16T07:21:48.333Z,18.82
2022-09-16T07:24:16.154Z,18.84
2022-09-16T07:26:44.671Z,18.95
2022-09-16T07:29:15.371Z,19.02
2022-09-16T07:31:43.496Z,19.11
2022-09-16T07:34:13.027Z,19.28
2022-09-16T07:36:43.264Z,19.47
2022-09-16T07:39:12.885Z,19.65
2022-09-16T07:41:43.745Z,19.77
2022-09-16T07:44:15.799Z,19.84
2022-09-16T07:46:43.871Z,19.91
2022-09-16T07:49:15.464Z,19.73
2022-09-16T07:51:43.653Z,19.80
2022-09-16T07:54:14.376Z,19.78
2022-09-16T07:56:43.982Z,19.75
2022-09-16T07:59:18.422Z,19.80
2022-09-16T08:01:48.071Z,19.86
2022-09-16T08:04:16.698Z,19.85
2022-09-16T08:06:44.231Z,19.86
2022-09-16T08:09:37.412Z,19.84
2022-09-16T08:12:02.716Z,19.81
2022-09-16T08:14:30.352Z,19.74
2022-09-16T08:16:58.114Z,19.65
2022-09-16T08:19:25.643Z,19.59
2022-09-16T08:21:53.274Z,19.52
2022-09-16T08:24:20.879Z,19.51
2022-09-16T08:26:48.430Z,19.51
2022-09-16T08:29:16.159Z,19.50
2022-09-16T08:31:47.424Z,19.45
2022-09-16T08:34:16.231Z,19.37
2022-09-16T08:36:44.210Z,19.35
2022-09-16T08:39:12.385Z,19.31
2022-09-16T08:42:00.741Z,19.20
2022-09-16T08:44:50.812Z,19.04
2022-09-16T08:47:52.143Z,18.87
2022-09-16T08:50:33.173Z,18.74
2022-09-16T08:53:07.601Z,18.69
2022-09-16T08:55:44.045Z,18.65
2022-09-16T08:58:23.264Z,18.62
2022-09-16T09:00:57.465Z,18.59
2022-09-16T09:03:46.920Z,18.55
2022-09-16T09:06:37.221Z,18.47
2022-09-16T09:09:48.623Z,18.39
2022-09-16T09:12:27.163Z,18.31
2022-09-16T09:15:28.252Z,18.22
2022-09-16T09:18:16.038Z,18.19
2022-09-16T09:21:16.090Z,18.13
2022-09-16T09:24:04.229Z,18.10
2022-09-16T09:27:15.423Z,18.09
2022-09-16T09:29:45.720Z,18.07
2022-09-16T09:32:48.622Z,18.04
2022-09-16T09:35:29.771Z,18.05
2022-09-16T09:38:12.819Z,18.03
2022-09-16T09:40:52.587Z,18.03
2022-09-16T09:43:31.716Z,18.06
2022-09-16T09:46:12.882Z,18.09
2022-09-16T09:48:52.082Z,18.07
2022-09-16T09:51:41.524Z,18.08
2022-09-16T09:54:29.980Z,18.05
2022-09-16T09:57:03.697Z,18.03
2022-09-16T10:00:10.670Z,18.00
2022-09-16T10:02:48.809Z,18.00
2022-09-16T10:05:29.293Z,18.06
2022-09-16T10:08:02.621Z,18.08
2022-09-16T10:10:34.611Z,18.11
2022-09-16T10:13:13.385Z,18.12
2022-09-16T10:15:41.580Z,18.14
2022-09-16T10:18:30.180Z,18.17
2022-09-16T10:21:03.454Z,18.18
2022-09-16T10:23:31.659Z,18.23
2022-09-16T10:26:07.655Z,18.28
2022-09-16T10:28:35.539Z,18.26
2022-09-16T10:31:03.723Z,18.29
2022-09-16T10:33:35.200Z,18.32
2022-09-16T10:36:06.842Z,18.34
2022-09-16T10:38:41.548Z,18.32
2022-09-16T10:41:15.991Z,18.30
2022-09-16T10:44:00.064Z,18.25
2022-09-16T10:46:29.696Z,18.20
2022-09-16T10:49:09.553Z,18.15
2022-09-16T10:51:37.203Z,18.18
2022-09-16T10:54:06.456Z,18.19
2022-09-16T10:56:48.036Z,18.17
2022-09-16T10:59:21.303Z,18.16
2022-09-16T11:02:05.291Z,18.13
2022-09-16T11:05:01.955Z,18.15
2022-09-16T11:07:36.738Z,18.13
2022-09-16T11:10:34.450Z,18.13
2022-09-16T11:13:16.801Z,18.15
2022-09-16T11:15:56.094Z,18.13
2022-09-16T11:18:50.823Z,18.13
2022-09-16T11:22:17.115Z,18.14
2022-09-16T11:24:52.341Z,18.17
2022-09-16T11:27:36.262Z,18.21
2022-09-16T11:30:03.898Z,18.28
2022-09-16T11:32:39.598Z,18.38
2022-09-16T11:35:58.051Z,18.51
2022-09-16T11:38:44.009Z,18.71
2022-09-16T11:41:42.695Z,18.81
2022-09-16T11:44:31.009Z,18.83
2022-09-16T11:47:16.832Z,18.85
2022-09-16T11:50:16.320Z,18.88
2022-09-16T11:52:51.995Z,18.92
2022-09-16T11:55:41.263Z,18.88
2022-09-16T11:58:39.362Z,18.82
2022-09-16T12:01:19.703Z,18.76
2022-09-16T12:04:10.086Z,18.73
2022-09-16T12:06:53.028Z,18.72
2022-09-16T12:09:34.317Z,18.69
2022-09-16T12:12:12.410Z,18.66
2022-09-16T12:14:46.951Z,18.59
2022-09-16T12:17:25.264Z,18.63
2022-09-16T12:20:06.401Z,18.64
2022-09-16T12:22:40.638Z,18.63
2022-09-16T12:25:27.458Z,18.63
2022-09-16T12:28:28.345Z,18.63
2022-09-16T12:31:30.119Z,18.65
2022-09-16T12:34:20.743Z,18.67
2022-09-16T12:36:52.936Z,18.77
2022-09-16T12:39:20.610Z,18.94
2022-09-16T12:42:15.082Z,19.14
2022-09-16T12:44:52.816Z,19.29
2022-09-16T12:47:52.063Z,19.39
2022-09-16T12:50:20.988Z,19.41
2022-09-16T12:53:09.933Z,19.41
2022-09-16T12:55:51.428Z,19.49
2022-09-16T12:58:37.217Z,19.49
2022-09-16T13:01:18.958Z,19.48
2022-09-16T13:03:55.809Z,19.51
2022-09-16T13:06:37.682Z,19.56
2022-09-16T13:09:47.746Z,19.59
2022-09-16T13:12:44.831Z,19.65
2022-09-16T13:15:28.693Z,19.73
2022-09-16T13:18:07.587Z,19.80
2022-09-16T13:20:47.768Z,19.86
2022-09-16T13:23:20.465Z,19.84
2022-09-16T13:25:57.350Z,19.84
2022-09-16T13:28:35.418Z,19.83
2022-09-16T13:31:31.012Z,19.82
2022-09-16T13:34:01.311Z,19.82
2022-09-16T13:36:38.259Z,19.84
2022-09-16T13:39:11.989Z,19.84
2022-09-16T13:41:41.673Z,19.85
2022-09-16T13:44:41.446Z,19.84
2022-09-16T13:47:12.432Z,19.80
2022-09-16T13:49:56.592Z,19.79
2022-09-16T13:52:36.836Z,19.77
2022-09-16T13:55:10.859Z,19.74
2022-09-16T13:57:38.801Z,19.73
2022-09-16T14:00:36.418Z,19.73
2022-09-16T14:03:34.658Z,19.72
2022-09-16T14:06:52.649Z,19.74
2022-09-16T14:09:29.075Z,19.77
2022-09-16T14:12:14.921Z,19.81
2022-09-16T14:14:47.326Z,19.89
2022-09-16T14:17:19.981Z,19.94
2022-09-16T14:19:50.990Z,19.97
2022-09-16T14:22:23.291Z,19.98
2022-09-16T14:25:00.552Z,19.95
2022-09-16T14:27:36.926Z,19.90
2022-09-16T14:30:07.529Z,19.85
2022-09-16T14:32:37.973Z,19.78
2022-09-16T14:35:29.643Z,19.73
2022-09-16T14:38:03.900Z,19.68
2022-09-16T14:40:31.844Z,19.63
2022-09-16T14:43:08.580Z,19.59
2022-09-16T14:45:37.929Z,19.51
2022-09-16T14:48:11.092Z,19.54
2022-09-16T14:50:43.900Z,19.53
2022-09-16T14:53:35.889Z,19.54
2022-09-16T14:56:05.543Z,19.52
2022-09-16T14:58:34.212Z,19.50
2022-09-16T15:01:13.048Z,19.44
2022-09-16T15:04:07.175Z,19.47
2022-09-16T15:06:41.403Z,19.45
2022-09-16T15:09:37.129Z,19.43
2022-09-16T15:12:05.079Z,19.41
2022-09-16T15:14:32.703Z,19.39
2022-09-16T15:17:03.701Z,19.37
2022-09-16T15:19:41.113Z,19.37
2022-09-16T15:22:15.203Z,19.36
2022-09-16T15:24:43.322Z,19.36
2022-09-16T15:27:11.197Z,19.36
2022-09-16T15:29:50.063Z,19.34
2022-09-16T15:32:24.365Z,19.38
2022-09-16T15:35:19.631Z,19.36
2022-09-16T15:37:47.952Z,19.39
2022-09-16T15:40:27.249Z,19.39
2022-09-16T15:43:04.705Z,19.41
2022-09-16T15:45:32.353Z,19.41
2022-09-16T15:48:16.185Z,19.38
2022-09-16T15:50:58.229Z,19.44
2022-09-16T15:53:31.808Z,19.46
2022-09-16T15:56:06.133Z,19.45
2022-09-16T15:58:34.001Z,19.45
2022-09-16T16:01:07.545Z,19.44
2022-09-16T16:03:52.307Z,19.43
2022-09-16T16:06:20.796Z,19.41
2022-09-16T16:08:56.598Z,19.37
2022-09-16T16:11:24.172Z,19.35
2022-09-16T16:13:51.729Z,19.34
2022-09-16T16:16:19.914Z,19.30
2022-09-16T16:18:47.554Z,19.29
2022-09-16T16:21:18.148Z,19.28
2022-09-16T16:23:45.706Z,19.27
2022-09-16T16:26:16.151Z,19.26
2022-09-16T16:28:43.743Z,19.22
2022-09-16T16:31:19.067Z,19.20
2022-09-16T16:33:48.438Z,19.19
2022-09-16T16:36:18.034Z,19.17
2022-09-16T16:38:46.675Z,19.16
2022-09-16T16:41:24.008Z,19.13
2022-09-16T16:43:52.068Z,19.11
2022-09-16T16:46:19.767Z,19.08
2022-09-16T16:48:47.817Z,19.03
2022-09-16T16:51:15.308Z,19.00
2022-09-16T16:53:42.820Z,18.97
2022-09-16T16:56:15.213Z,18.96
2022-09-16T16:58:43.394Z,18.96
2022-09-16T17:01:16.733Z,18.95
2022-09-16T17:03:46.556Z,18.92
2022-09-16T17:06:14.189Z,18.89
2022-09-16T17:08:42.512Z,18.87
2022-09-16T17:11:14.179Z,18.84
2022-09-16T17:13:46.794Z,18.84
2022-09-16T17:16:16.639Z,18.83
2022-09-16T17:18:44.728Z,18.84
2022-09-16T17:21:16.106Z,18.85
2022-09-16T17:23:44.062Z,18.84
2022-09-16T17:26:12.267Z,18.82
2022-09-16T17:28:41.546Z,18.88
2022-09-16T17:31:16.434Z,18.89
2022-09-16T17:33:44.998Z,18.87
2022-09-16T17:36:15.143Z,18.89
2022-09-16T17:38:42.936Z,18.90
2022-09-16T17:41:13.504Z,18.91
2022-09-16T17:43:42.205Z,18.91
2022-09-16T17:46:16.178Z,18.89
2022-09-16T17:48:43.825Z,18.92
2022-09-16T17:51:11.778Z,18.93
2022-09-16T17:53:39.746Z,18.94
2022-09-16T17:56:10.068Z,19.00
2022-09-16T17:58:39.827Z,19.04
2022-09-16T18:01:09.513Z,19.06
2022-09-16T18:03:38.108Z,19.08
2022-09-16T18:06:08.962Z,19.11
2022-09-16T18:08:37.298Z,19.12
2022-09-16T18:11:05.929Z,19.11
2022-09-16T18:13:34.070Z,19.08
2022-09-16T18:16:13.462Z,19.07
2022-09-16T18:18:43.359Z,19.01
2022-09-16T18:21:15.411Z,18.96
2022-09-16T18:23:43.166Z,18.94
2022-09-16T18:26:13.607Z,18.92
2022-09-16T18:29:08.761Z,18.92
2022-09-16T18:31:35.127Z,18.90
2022-09-16T18:34:02.641Z,18.93
2022-09-16T18:36:32.953Z,18.96
2022-09-16T18:39:00.568Z,18.96
2022-09-16T18:41:31.298Z,18.95
2022-09-16T18:44:01.560Z,18.96
2022-09-16T18:46:34.326Z,18.96
2022-09-16T18:49:02.026Z,18.95
2022-09-16T18:51:31.167Z,18.94
2022-09-16T18:54:04.854Z,18.92
2022-09-16T18:56:34.664Z,18.90
2022-09-16T18:59:22.540Z,18.87
2022-09-16T19:01:53.593Z,18.85
2022-09-16T19:04:24.016Z,18.84
2022-09-16T19:06:53.865Z,18.82
2022-09-16T19:09:23.154Z,18.80
2022-09-16T19:11:54.275Z,18.77
2022-09-16T19:14:25.085Z,18.76
2022-09-16T19:16:52.919Z,18.73
2022-09-16T19:19:21.714Z,18.74
2022-09-16T19:21:49.781Z,18.74
2022-09-16T19:24:19.853Z,18.72
2022-09-16T19:26:48.975Z,18.65
2022-09-16T19:29:18.582Z,18.64
2022-09-16T19:31:48.375Z,18.65
2022-09-16T19:34:16.729Z,18.64
2022-09-16T19:36:44.632Z,18.61
2022-09-16T19:39:13.562Z,18.59
2022-09-16T19:41:42.815Z,18.56
2022-09-16T19:44:13.917Z,18.54
2022-09-16T19:46:47.177Z,18.51
2022-09-16T19:49:17.872Z,18.49
2022-09-16T19:51:45.704Z,18.46
2022-09-16T19:54:13.434Z,18.42
2022-09-16T19:56:41.501Z,18.33
2022-09-16T19:59:09.614Z,18.37
2022-09-16T20:01:40.548Z,18.33
2022-09-16T20:04:08.886Z,18.30
2022-09-16T20:06:39.211Z,18.28
2022-09-16T20:09:12.075Z,18.26
2022-09-16T20:11:45.269Z,18.22
2022-09-16T20:14:16.367Z,18.19
2022-09-16T20:16:44.245Z,18.15
2022-09-16T20:19:14.613Z,18.13
2022-09-16T20:21:42.741Z,18.11
2022-09-16T20:24:16.434Z,18.10
2022-09-16T20:26:44.373Z,18.08
2022-09-16T20:29:11.876Z,18.07
2022-09-16T20:31:39.516Z,18.00
2022-09-16T20:34:07.119Z,18.01
2022-09-16T20:36:38.500Z,17.98
2022-09-16T20:39:07.227Z,17.96
2022-09-16T20:41:36.493Z,17.93
2022-09-16T20:44:05.043Z,17.93
2022-09-16T20:46:37.334Z,17.91
2022-09-16T20:49:06.809Z,17.90
2022-09-16T20:51:35.312Z,17.88
2022-09-16T20:54:14.725Z,17.86
2022-09-16T20:56:44.357Z,17.85
2022-09-16T20:59:13.864Z,17.83
2022-09-16T21:01:42.179Z,17.82
2022-09-16T21:04:16.047Z,17.83
2022-09-16T21:06:44.490Z,17.82
2022-09-16T21:09:14.449Z,17.82
2022-09-16T21:11:45.290Z,17.78
2022-09-16T21:14:15.517Z,17.84
2022-09-16T21:16:44.493Z,17.84
2022-09-16T21:19:13.677Z,17.83
2022-09-16T21:21:52.513Z,17.83
2022-09-16T21:24:19.968Z,17.82
2022-09-16T21:26:47.472Z,17.82
2022-09-16T21:29:19.120Z,17.81
2022-09-16T21:31:47.318Z,17.81
2022-09-16T21:34:21.711Z,17.72
2022-09-16T21:36:50.652Z,17.62
2022-09-16T21:39:20.070Z,17.52
2022-09-16T21:41:48.848Z,17.46
2022-09-16T21:44:16.498Z,17.41
2022-09-16T21:46:46.637Z,17.38
2022-09-16T21:49:24.462Z,17.35
2022-09-16T21:51:54.593Z,17.34
2022-09-16T21:54:22.962Z,17.33
2022-09-16T21:56:51.799Z,17.35
2022-09-16T21:59:20.154Z,17.32
2022-09-16T22:01:50.270Z,17.29
2022-09-16T22:04:23.394Z,17.30
2022-09-16T22:06:52.923Z,17.27
2022-09-16T22:09:20.551Z,17.23
2022-09-16T22:11:48.111Z,17.18
2022-09-16T22:14:16.473Z,17.13
2022-09-16T22:16:44.402Z,17.09
2022-09-16T22:19:15.293Z,17.05
2022-09-16T22:21:44.850Z,17.03
2022-09-16T22:24:12.906Z,16.97
2022-09-16T22:26:40.474Z,16.93
2022-09-16T22:29:09.627Z,16.91
2022-09-16T22:31:38.955Z,16.88
2022-09-16T22:34:06.583Z,16.86
2022-09-16T22:36:35.787Z,16.88
2022-09-16T22:39:13.773Z,16.86
2022-09-16T22:41:44.492Z,16.92
2022-09-16T22:44:12.629Z,16.91
2022-09-16T22:46:45.455Z,16.96
2022-09-16T22:49:14.205Z,17.01
2022-09-16T22:51:42.390Z,17.03
2022-09-16T22:54:12.547Z,17.06
2022-09-16T22:56:43.158Z,17.07
2022-09-16T22:59:18.053Z,17.12
2022-09-16T23:01:46.472Z,17.14
2022-09-16T23:04:14.029Z,17.17
2022-09-16T23:06:42.467Z,17.23
2022-09-16T23:09:12.521Z,17.28
2022-09-16T23:11:40.660Z,17.30
2022-09-16T23:14:11.037Z,17.36
2022-09-16T23:16:39.704Z,17.41
2022-09-16T23:19:11.079Z,17.45
2022-09-16T23:21:39.153Z,17.50
2022-09-16T23:24:08.731Z,17.51
2022-09-16T23:26:38.289Z,17.53
2022-09-16T23:29:08.326Z,17.54
2022-09-16T23:31:40.581Z,17.60
2022-09-16T23:34:14.000Z,17.62
2022-09-16T23:36:41.899Z,17.64
2022-09-16T23:39:11.030Z,17.64
2022-09-16T23:41:38.845Z,17.63
2022-09-16T23:44:06.731Z,17.60
2022-09-16T23:46:34.592Z,17.65
2022-09-16T23:49:02.261Z,17.61
2022-09-16T23:51:31.378Z,17.66
2022-09-16T23:54:00.145Z,17.58
2022-09-16T23:56:28.138Z,17.66
2022-09-16T23:58:59.386Z,17.58
